Time;durP1;ratioP1;P1;durP2;ratioP2;P2;SDS_P1;SDS_P2;PMS_P1;PMS_P2;Temp;Humidity;BMP_temperature;BMP_pressure;BME280_temperature;BME280_humidity;BME280_pressure;Samples;Min_cycle;Max_cycle;Signal;HPM_P1;HPM_P2
2022/10/23 00:02:11;;;;;;;5.38;3.08;;;16.30;99.90;;;;;;5007555;28;20037;-48
2022/10/23 00:04:37;;;;;;;3.95;2.72;;;16.40;99.90;;;;;;5029552;28;20079;-48
2022/10/23 00:07:02;;;;;;;4.75;2.65;;;16.30;99.90;;;;;;5025546;28;20033;-47
2022/10/23 00:09:28;;;;;;;5.55;2.58;;;16.30;99.90;;;;;;5026215;28;20071;-47
2022/10/23 00:11:54;;;;;;;4.60;2.70;;;16.30;99.90;;;;;;5016147;28;20033;-48
2022/10/23 00:14:23;;;;;;;4.38;2.50;;;16.40;99.90;;;;;;5031589;28;20437;-48
2022/10/23 00:16:49;;;;;;;5.60;2.75;;;16.40;99.90;;;;;;5049552;28;20029;-48
2022/10/23 00:19:15;;;;;;;5.00;2.83;;;16.50;99.90;;;;;;5045480;28;20017;-47
2022/10/23 00:21:41;;;;;;;5.93;3.03;;;16.50;99.90;;;;;;5055802;28;20036;-47
2022/10/23 00:24:07;;;;;;;7.15;3.25;;;16.40;99.90;;;;;;5050228;28;20037;-48
2022/10/23 00:26:33;;;;;;;3.17;2.70;;;16.40;99.90;;;;;;5046734;28;20425;-48
2022/10/23 00:28:59;;;;;;;5.43;3.78;;;16.50;99.90;;;;;;5045366;28;20103;-47
2022/10/23 00:31:25;;;;;;;5.18;3.45;;;16.50;99.90;;;;;;5055567;28;20033;-48
2022/10/23 00:33:51;;;;;;;5.43;3.28;;;16.50;99.90;;;;;;5053229;28;20162;-47
2022/10/23 00:36:19;;;;;;;4.57;2.78;;;16.50;99.90;;;;;;5049549;28;20536;-47
2022/10/23 00:38:45;;;;;;;4.05;2.90;;;16.50;99.90;;;;;;5047098;28;20485;-47
2022/10/23 00:41:24;;;;;;;5.30;3.35;;;16.50;99.90;;;;;;5036125;28;20043;-47
2022/10/23 00:44:09;;;;;;;8.07;6.57;;;16.60;99.90;;;;;;5034781;28;20045;-48
2022/10/23 00:46:37;;;;;;;15.00;9.02;;;16.60;99.90;;;;;;5026693;28;20473;-48
2022/10/23 00:49:04;;;;;;;10.35;6.95;;;16.60;99.90;;;;;;5033539;28;20064;-47
2022/10/23 00:51:39;;;;;;;6.18;4.80;;;16.50;99.90;;;;;;5027103;28;20040;-48
2022/10/23 00:54:06;;;;;;;5.88;4.03;;;16.50;99.90;;;;;;5029026;28;20037;-48
2022/10/23 00:56:34;;;;;;;5.22;3.42;;;16.50;99.90;;;;;;5026015;28;20096;-48
2022/10/23 00:59:00;;;;;;;4.63;3.55;;;16.40;99.90;;;;;;5023698;28;20085;-48
2022/10/23 01:01:26;;;;;;;6.43;3.53;;;16.40;99.90;;;;;;5014225;28;20029;-47
2022/10/23 01:03:52;;;;;;;5.70;3.50;;;16.30;99.90;;;;;;5027739;28;20156;-47
2022/10/23 01:06:31;;;;;;;5.15;3.03;;;16.30;99.90;;;;;;4984073;28;20098;-48
2022/10/23 01:09:08;;;;;;;5.07;3.38;;;16.20;99.90;;;;;;5021930;28;20038;-50
2022/10/23 01:12:02;;;;;;;7.03;3.47;;;16.20;99.90;;;;;;4996970;28;20493;-48
2022/10/23 01:14:41;;;;;;;6.00;3.30;;;16.20;99.90;;;;;;5026110;28;20033;-47
2022/10/23 01:17:26;;;;;;;4.97;3.70;;;16.20;99.90;;;;;;5019385;28;20025;-48
2022/10/23 01:20:17;;;;;;;5.95;3.92;;;16.20;99.90;;;;;;5039846;28;20044;-48
2022/10/23 01:22:48;;;;;;;4.90;3.10;;;16.00;99.90;;;;;;4992950;28;20138;-48
2022/10/23 01:25:34;;;;;;;3.90;3.08;;;16.00;99.90;;;;;;4992729;28;20076;-47
2022/10/23 01:28:04;;;;;;;4.10;3.35;;;16.00;99.90;;;;;;4994351;28;20510;-48
2022/10/23 01:30:32;;;;;;;4.90;3.50;;;15.70;99.90;;;;;;4996167;28;20049;-47
2022/10/23 01:33:09;;;;;;;7.38;3.15;;;15.60;99.90;;;;;;4995124;28;20058;-48
2022/10/23 01:35:47;;;;;;;5.53;3.25;;;15.70;99.90;;;;;;4995107;28;20114;-48
2022/10/23 01:38:34;;;;;;;6.13;3.88;;;15.70;99.90;;;;;;4994115;28;20054;-47
2022/10/23 01:41:06;;;;;;;5.35;3.85;;;15.70;99.90;;;;;;4995575;28;20133;-48
2022/10/23 01:43:48;;;;;;;6.35;3.50;;;15.70;99.90;;;;;;4995221;28;20042;-47
2022/10/23 01:46:16;;;;;;;6.22;4.05;;;15.60;99.90;;;;;;4995133;28;20037;-47
2022/10/23 01:48:47;;;;;;;4.90;3.28;;;15.60;99.90;;;;;;4983453;28;20038;-48
2022/10/23 01:51:15;;;;;;;4.65;3.80;;;15.50;99.90;;;;;;4994685;28;20058;-48
2022/10/23 01:53:44;;;;;;;5.03;3.72;;;15.60;99.90;;;;;;4994969;28;20039;-48
2022/10/23 01:56:13;;;;;;;7.13;3.85;;;15.60;99.90;;;;;;4994258;28;20026;-48
2022/10/23 01:58:44;;;;;;;7.05;3.90;;;15.40;99.90;;;;;;4988618;28;20030;-47
2022/10/23 02:01:12;;;;;;;4.93;3.90;;;15.40;99.90;;;;;;5054038;28;20083;-48
2022/10/23 02:03:39;;;;;;;6.57;4.25;;;15.40;99.90;;;;;;5043751;28;20088;-47
2022/10/23 02:06:05;;;;;;;5.63;4.55;;;15.40;99.90;;;;;;5044704;28;20157;-47
2022/10/23 02:08:31;;;;;;;6.00;4.38;;;15.50;99.90;;;;;;4999742;28;20033;-47
2022/10/23 02:11:07;;;;;;;5.53;4.50;;;15.60;99.90;;;;;;5056816;28;20086;-50
2022/10/23 02:13:52;;;;;;;9.98;5.85;;;15.60;99.90;;;;;;5001448;28;20038;-47
2022/10/23 02:16:35;;;;;;;6.22;4.70;;;15.60;99.90;;;;;;4969586;28;20076;-47
2022/10/23 02:19:28;;;;;;;5.80;4.38;;;15.60;99.90;;;;;;5016674;28;20040;-47
2022/10/23 02:21:56;;;;;;;7.57;4.07;;;15.60;99.90;;;;;;5008715;28;20412;-47
2022/10/23 02:24:30;;;;;;;5.05;3.90;;;15.60;99.90;;;;;;5014784;28;20085;-47
2022/10/23 02:27:00;;;;;;;6.00;4.20;;;15.60;99.90;;;;;;5001855;28;20073;-47
2022/10/23 02:29:40;;;;;;;6.60;4.47;;;15.60;99.90;;;;;;5009836;28;20077;-47
2022/10/23 02:32:08;;;;;;;5.13;4.60;;;15.60;99.90;;;;;;5009113;28;20092;-47
2022/10/23 02:34:35;;;;;;;7.05;5.40;;;15.60;99.90;;;;;;5012690;28;20096;-47
2022/10/23 02:37:01;;;;;;;8.07;6.25;;;15.50;99.90;;;;;;4985569;28;20066;-47
2022/10/23 02:39:28;;;;;;;10.18;6.72;;;15.60;99.90;;;;;;5013026;28;20030;-47
2022/10/23 02:42:08;;;;;;;8.65;5.82;;;15.60;99.90;;;;;;5010202;28;20034;-47
2022/10/23 02:44:52;;;;;;;7.97;5.65;;;15.60;99.90;;;;;;5029442;28;20049;-47
2022/10/23 02:47:45;;;;;;;10.55;5.95;;;15.60;99.90;;;;;;5039910;28;20048;-47
2022/10/23 02:50:14;;;;;;;7.90;5.28;;;15.70;99.90;;;;;;5049540;28;20108;-47
2022/10/23 02:52:56;;;;;;;15.38;6.03;;;15.70;99.90;;;;;;5048767;28;20027;-47
2022/10/23 02:55:50;;;;;;;9.00;5.53;;;15.60;99.90;;;;;;5044110;28;20033;-47
2022/10/23 02:58:30;;;;;;;7.43;5.05;;;15.60;99.90;;;;;;5042790;28;20384;-47
2022/10/23 03:01:18;;;;;;;8.30;5.35;;;15.60;99.90;;;;;;5046818;28;20025;-47
2022/10/23 03:03:56;;;;;;;6.15;5.13;;;15.60;99.90;;;;;;5050850;28;20058;-48
2022/10/23 03:06:22;;;;;;;6.22;4.90;;;15.40;99.90;;;;;;5048794;28;20027;-47
2022/10/23 03:08:56;;;;;;;5.35;4.53;;;15.40;99.90;;;;;;5053050;28;20040;-48
2022/10/23 03:11:22;;;;;;;8.00;5.35;;;15.50;99.90;;;;;;5045526;28;20032;-47
2022/10/23 03:13:48;;;;;;;8.52;5.53;;;15.50;99.90;;;;;;5049949;28;20111;-47
2022/10/23 03:16:14;;;;;;;7.72;5.15;;;15.50;99.90;;;;;;5013349;28;20042;-48
2022/10/23 03:18:39;;;;;;;7.55;5.65;;;15.50;99.90;;;;;;5015491;28;20032;-47
2022/10/23 03:21:05;;;;;;;7.75;5.90;;;15.60;99.90;;;;;;5047362;28;20029;-47
2022/10/23 03:23:31;;;;;;;8.18;5.18;;;15.60;99.90;;;;;;5051212;28;20492;-48
2022/10/23 03:25:57;;;;;;;6.03;4.75;;;15.60;99.90;;;;;;5013327;28;20123;-48
2022/10/23 03:28:22;;;;;;;8.25;5.70;;;15.60;99.90;;;;;;5031685;28;20140;-47
2022/10/23 03:30:48;;;;;;;6.80;5.32;;;15.70;99.90;;;;;;5066286;28;20025;-47
2022/10/23 03:33:14;;;;;;;9.35;5.72;;;15.70;99.90;;;;;;5049436;28;20529;-47
2022/10/23 03:35:40;;;;;;;7.70;5.25;;;15.80;99.90;;;;;;5064006;28;20089;-47
2022/10/23 03:38:05;;;;;;;7.47;5.55;;;15.80;99.90;;;;;;5035638;28;20051;-48
2022/10/23 03:40:31;;;;;;;7.55;5.43;;;15.80;99.90;;;;;;5073519;28;20119;-48
2022/10/23 03:42:57;;;;;;;8.73;5.35;;;15.80;99.90;;;;;;5067488;28;20376;-48
2022/10/23 03:45:23;;;;;;;7.20;5.50;;;15.80;99.90;;;;;;5061519;28;20488;-47
2022/10/23 03:47:50;;;;;;;6.15;5.53;;;15.80;99.90;;;;;;5063599;28;20488;-47
2022/10/23 03:50:17;;;;;;;7.22;5.45;;;15.80;99.90;;;;;;5072401;28;20039;-47
2022/10/23 03:52:43;;;;;;;8.10;5.82;;;15.80;99.90;;;;;;5065230;28;20021;-51
2022/10/23 03:55:10;;;;;;;11.00;6.40;;;15.90;99.90;;;;;;5066981;28;20483;-47
2022/10/23 03:57:36;;;;;;;7.38;6.03;;;15.90;99.90;;;;;;5008268;28;20549;-48
2022/10/23 04:00:04;;;;;;;8.82;6.57;;;15.90;99.90;;;;;;5069387;28;20122;-50
2022/10/23 04:02:30;;;;;;;10.23;6.35;;;16.00;99.90;;;;;;5024266;28;20517;-47
2022/10/23 04:04:56;;;;;;;8.65;6.63;;;16.00;99.90;;;;;;5020714;28;20120;-47
2022/10/23 04:07:21;;;;;;;8.90;6.90;;;16.00;99.90;;;;;;5017948;28;20445;-47
2022/10/23 04:09:47;;;;;;;10.05;6.75;;;16.00;99.90;;;;;;5013235;28;20036;-48
2022/10/23 04:12:13;;;;;;;13.43;7.78;;;16.00;99.90;;;;;;5025974;28;20033;-47
2022/10/23 04:14:39;;;;;;;12.43;7.72;;;16.00;99.90;;;;;;5021955;28;20059;-47
2022/10/23 04:17:05;;;;;;;11.18;7.45;;;15.90;99.90;;;;;;5021976;28;20123;-47
2022/10/23 04:19:30;;;;;;;11.43;6.97;;;15.80;99.90;;;;;;5019184;28;20374;-47
2022/10/23 04:21:56;;;;;;;12.05;8.38;;;15.90;99.90;;;;;;4993058;28;20042;-48
2022/10/23 04:24:24;;;;;;;10.63;8.10;;;16.00;99.90;;;;;;5011787;28;20041;-47
2022/10/23 04:26:49;;;;;;;11.27;7.50;;;15.90;99.90;;;;;;5017751;28;20034;-48
2022/10/23 04:29:15;;;;;;;9.25;7.85;;;15.90;99.90;;;;;;5024323;28;20124;-47
2022/10/23 04:31:43;;;;;;;9.82;8.10;;;15.80;99.90;;;;;;5024572;28;20389;-47
2022/10/23 04:34:09;;;;;;;12.32;8.30;;;15.80;99.90;;;;;;5054840;28;20071;-47
2022/10/23 04:36:35;;;;;;;11.20;8.10;;;15.80;99.90;;;;;;5005803;28;20056;-47
2022/10/23 04:39:01;;;;;;;9.35;7.47;;;15.70;99.90;;;;;;5064539;28;20045;-47
2022/10/23 04:41:26;;;;;;;9.95;8.70;;;15.70;99.90;;;;;;5018757;28;20036;-47
2022/10/23 04:43:52;;;;;;;13.65;8.52;;;15.60;99.90;;;;;;5068084;28;20037;-48
2022/10/23 04:46:18;;;;;;;12.60;8.68;;;15.70;99.90;;;;;;5032472;28;20040;-48
2022/10/23 04:48:43;;;;;;;9.82;7.75;;;15.60;99.90;;;;;;5035557;28;20064;-48
2022/10/23 04:51:09;;;;;;;10.20;8.07;;;15.60;99.90;;;;;;5037222;28;20395;-47
2022/10/23 04:53:35;;;;;;;9.45;8.15;;;15.60;99.90;;;;;;5000005;28;20043;-47
2022/10/23 04:56:01;;;;;;;12.63;9.15;;;15.60;99.90;;;;;;5015189;28;20033;-47
2022/10/23 04:58:28;;;;;;;16.30;11.13;;;15.60;99.90;;;;;;5064685;28;20025;-47
2022/10/23 05:00:54;;;;;;;28.10;17.02;;;15.60;99.90;;;;;;5066842;28;20028;-48
2022/10/23 05:03:21;;;;;;;20.35;16.80;;;15.30;99.90;;;;;;5062975;28;20029;-47
2022/10/23 05:05:47;;;;;;;18.63;14.43;;;15.30;99.90;;;;;;5072650;28;20043;-47
2022/10/23 05:08:13;;;;;;;17.63;13.38;;;15.30;99.90;;;;;;5070530;28;20686;-47
2022/10/23 05:10:40;;;;;;;15.40;11.73;;;15.20;99.90;;;;;;5067389;28;20031;-47
2022/10/23 05:13:06;;;;;;;12.32;11.02;;;15.10;99.90;;;;;;5046851;28;20094;-47
2022/10/23 05:15:32;;;;;;;13.18;10.05;;;15.10;99.90;;;;;;5067920;28;20051;-48
2022/10/23 05:18:08;;;;;;;15.15;10.27;;;15.10;99.90;;;;;;5067419;28;20082;-48
2022/10/23 05:20:36;;;;;;;177.43;69.15;;;15.20;99.90;;;;;;5068480;28;20104;-48
2022/10/23 05:23:08;;;;;;;123.90;51.88;;;15.10;99.90;;;;;;5064594;28;20039;-47
2022/10/23 05:25:34;;;;;;;66.45;59.33;;;15.20;99.90;;;;;;5034860;28;20041;-47
2022/10/23 05:28:00;;;;;;;63.85;51.72;;;15.00;99.90;;;;;;5070836;28;20503;-48
2022/10/23 05:30:26;;;;;;;52.15;35.00;;;14.70;99.90;;;;;;5070429;28;20021;-47
2022/10/23 05:32:51;;;;;;;47.75;31.65;;;14.70;99.90;;;;;;5016782;28;20041;-48
2022/10/23 05:35:21;;;;;;;108.43;46.65;;;14.70;99.90;;;;;;5035565;28;20045;-47
2022/10/23 05:37:48;;;;;;;29.58;17.05;;;14.80;99.90;;;;;;5068526;28;20071;-48
2022/10/23 05:40:13;;;;;;;27.17;16.70;;;15.20;99.90;;;;;;5070209;28;20475;-47
2022/10/23 05:42:39;;;;;;;22.08;12.75;;;15.50;99.90;;;;;;5072784;28;20028;-48
2022/10/23 05:45:05;;;;;;;26.67;13.98;;;17.20;99.90;;;;;;5071412;28;20081;-48
2022/10/23 05:47:31;;;;;;;11.93;8.88;;;19.20;99.90;;;;;;5034638;28;20044;-47
2022/10/23 05:49:57;;;;;;;36.15;17.05;;;21.10;99.90;;;;;;5020994;28;20047;-47
2022/10/23 05:52:23;;;;;;;16.27;8.73;;;22.20;99.90;;;;;;5030237;28;20036;-47
2022/10/23 05:54:51;;;;;;;8.93;7.05;;;;;;;;;;5072608;28;20028;-47
2022/10/23 05:57:17;;;;;;;7.43;6.25;;;22.60;99.90;;;;;;5069624;28;20483;-47
2022/10/23 05:59:43;;;;;;;7.25;5.22;;;22.20;99.90;;;;;;5068748;28;20029;-48
2022/10/23 06:02:08;;;;;;;7.22;5.72;;;20.20;99.90;;;;;;5020587;28;20033;-48
2022/10/23 06:04:34;;;;;;;23.17;13.45;;;20.40;99.90;;;;;;5071475;28;20552;-47
2022/10/23 06:07:01;;;;;;;15.90;9.30;;;;;;;;;;5073413;28;21740;-48
2022/10/23 06:09:27;;;;;;;12.73;6.93;;;25.50;99.90;;;;;;5071306;28;20024;-48
2022/10/23 06:11:53;;;;;;;20.08;12.57;;;25.50;99.90;;;;;;5051352;28;20201;-47
2022/10/23 06:14:18;;;;;;;17.80;10.07;;;26.60;99.90;;;;;;4988808;28;20028;-48
2022/10/23 06:16:45;;;;;;;10.43;8.48;;;;;;;;;;5066112;28;20038;-47
2022/10/23 06:19:11;;;;;;;15.85;10.13;;;27.60;99.90;;;;;;5039182;28;20093;-48
2022/10/23 06:21:39;;;;;;;15.30;8.40;;;29.70;99.90;;;;;;5073456;28;20048;-48
2022/10/23 06:24:06;;;;;;;11.57;8.00;;;31.70;97.30;;;;;;5072303;28;20418;-48
2022/10/23 06:26:32;;;;;;;15.30;9.57;;;32.10;96.20;;;;;;5069066;28;20028;-48
2022/10/23 06:29:17;;;;;;;7.82;5.90;;;32.40;94.40;;;;;;5045865;28;20036;-48
2022/10/23 06:31:43;;;;;;;8.73;5.75;;;31.20;93.50;;;;;;5009543;28;20199;-48
2022/10/23 06:34:11;;;;;;;5.95;5.35;;;30.00;93.80;;;;;;4995851;28;20035;-49
2022/10/23 06:36:37;;;;;;;7.53;5.88;;;28.30;94.70;;;;;;5045478;28;20408;-48
2022/10/23 06:39:03;;;;;;;5.70;5.00;;;27.70;96.10;;;;;;5044463;28;20211;-48
2022/10/23 06:41:29;;;;;;;7.63;5.32;;;27.90;96.20;;;;;;5042039;28;20033;-48
2022/10/23 06:43:55;;;;;;;5.03;4.53;;;27.90;96.50;;;;;;5001768;28;20551;-48
2022/10/23 06:46:21;;;;;;;10.45;4.68;;;28.40;96.00;;;;;;5046523;28;20107;-48
2022/10/23 06:48:47;;;;;;;7.95;4.75;;;28.50;96.80;;;;;;5043542;28;20474;-48
2022/10/23 06:51:15;;;;;;;6.70;4.60;;;28.00;96.50;;;;;;5042227;28;20104;-49
2022/10/23 06:53:42;;;;;;;6.75;4.90;;;;;;;;;;5026724;28;20041;-48
2022/10/23 06:56:08;;;;;;;7.40;5.20;;;;;;;;;;5028297;28;20053;-48
2022/10/23 06:58:35;;;;;;;7.70;5.78;;;;;;;;;;5027537;28;20057;-48
2022/10/23 07:01:04;;;;;;;7.72;5.25;;;32.70;93.20;;;;;;5042005;28;20397;-48
2022/10/23 07:03:30;;;;;;;11.05;9.05;;;33.20;92.80;;;;;;5043042;28;20033;-48
2022/10/23 07:06:03;;;;;;;7.03;5.85;;;33.50;92.70;;;;;;5049045;28;20148;-48
2022/10/23 07:08:29;;;;;;;8.77;7.63;;;34.50;91.30;;;;;;4999020;28;20103;-48
2022/10/23 07:10:55;;;;;;;6.35;5.00;;;33.60;90.80;;;;;;5011096;28;20424;-48
2022/10/23 07:13:23;;;;;;;7.90;4.88;;;;;;;;;;5042870;28;20051;-48
2022/10/23 07:15:50;;;;;;;5.43;4.47;;;34.50;90.30;;;;;;5048711;28;20142;-49
2022/10/23 07:18:16;;;;;;;5.28;4.65;;;33.90;89.60;;;;;;5045595;28;20032;-50
2022/10/23 07:20:42;;;;;;;4.95;4.45;;;34.20;90.20;;;;;;5045325;28;20049;-49
2022/10/23 07:23:10;;;;;;;5.40;4.38;;;34.10;89.00;;;;;;5047192;28;20036;-49
2022/10/23 07:25:37;;;;;;;5.55;4.40;;;;;;;;;;5039940;28;20048;-48
2022/10/23 07:28:04;;;;;;;6.50;4.97;;;36.10;86.60;;;;;;5043148;28;20068;-49
2022/10/23 07:30:30;;;;;;;6.25;4.65;;;36.40;86.20;;;;;;5046808;28;20045;-49
2022/10/23 07:32:55;;;;;;;7.13;4.88;;;36.60;85.40;;;;;;5073021;28;20020;-49
2022/10/23 07:35:21;;;;;;;6.68;5.57;;;;;;;;;;5059681;28;20456;-49
2022/10/23 07:37:47;;;;;;;6.25;4.53;;;36.60;83.90;;;;;;5036991;28;20044;-49
2022/10/23 07:40:13;;;;;;;4.88;4.47;;;36.60;83.10;;;;;;4989730;28;20035;-48
2022/10/23 07:42:39;;;;;;;5.38;4.88;;;;;;;;;;4989068;28;20041;-48
2022/10/23 07:45:06;;;;;;;5.25;4.43;;;35.00;84.20;;;;;;5004342;28;20076;-49
2022/10/23 07:47:32;;;;;;;6.00;4.50;;;34.80;85.00;;;;;;4999887;28;20105;-49
2022/10/23 07:49:58;;;;;;;8.25;4.30;;;33.00;85.20;;;;;;5008193;28;20497;-48
2022/10/23 07:52:24;;;;;;;8.18;4.68;;;33.70;86.40;;;;;;5003031;28;20161;-49
2022/10/23 07:54:51;;;;;;;5.57;4.30;;;34.40;85.70;;;;;;4992358;28;20080;-49
2022/10/23 07:57:17;;;;;;;5.05;4.47;;;35.00;84.80;;;;;;5003090;28;20054;-48
2022/10/23 07:59:42;;;;;;;10.95;4.47;;;35.10;83.90;;;;;;4991973;28;20084;-49
2022/10/23 08:02:14;;;;;;;6.95;5.13;;;35.30;83.90;;;;;;4980140;28;20037;-48
2022/10/23 08:04:40;;;;;;;7.05;5.10;;;33.90;83.30;;;;;;4999778;28;20425;-49
2022/10/23 08:07:06;;;;;;;7.80;4.72;;;35.00;84.50;;;;;;4999019;28;20030;-49
2022/10/23 08:09:33;;;;;;;5.05;4.50;;;35.80;83.20;;;;;;4987231;28;20049;-49
2022/10/23 08:12:00;;;;;;;6.55;4.68;;;35.40;82.60;;;;;;5002842;28;20035;-49
2022/10/23 08:14:26;;;;;;;7.20;4.88;;;35.20;83.30;;;;;;5049884;28;20029;-49
2022/10/23 08:16:52;;;;;;;6.93;5.68;;;33.00;83.50;;;;;;5068083;28;20032;-50
2022/10/23 08:19:17;;;;;;;5.63;4.90;;;34.00;84.40;;;;;;5015912;28;20037;-49
2022/10/23 08:21:43;;;;;;;5.68;5.10;;;33.20;84.60;;;;;;5014029;28;20123;-49
2022/10/23 08:24:12;;;;;;;5.43;4.75;;;33.10;83.90;;;;;;5036638;28;20122;-50
2022/10/23 08:26:38;;;;;;;5.47;4.53;;;32.60;84.20;;;;;;5067504;28;20039;-49
2022/10/23 08:29:04;;;;;;;5.65;4.63;;;33.10;85.20;;;;;;5072319;28;20108;-49
2022/10/23 08:31:29;;;;;;;4.60;4.18;;;33.80;84.60;;;;;;5063769;28;20036;-48
2022/10/23 08:33:55;;;;;;;4.88;4.10;;;34.20;83.90;;;;;;5036439;28;20041;-48
2022/10/23 08:36:27;;;;;;;4.35;3.95;;;34.30;83.40;;;;;;5071266;28;20028;-48
2022/10/23 08:38:55;;;;;;;6.47;4.95;;;34.70;83.70;;;;;;5067761;28;20087;-49
2022/10/23 08:41:26;;;;;;;5.40;4.60;;;34.90;82.90;;;;;;5035500;28;20041;-49
2022/10/23 08:43:55;;;;;;;;;;;34.40;82.60;;;;;;5022338;28;20057;-49
2022/10/23 08:46:25;;;;;;;4.70;4.28;;;34.30;83.20;;;;;;5018129;28;19909;-48
2022/10/23 08:48:58;;;;;;;6.70;5.00;;;33.60;83.20;;;;;;4986961;28;20037;-49
2022/10/23 08:51:36;;;;;;;5.65;4.45;;;34.60;83.00;;;;;;5025450;28;20034;-49
2022/10/23 08:54:07;;;;;;;5.03;4.63;;;34.60;82.60;;;;;;5024627;28;20038;-49
2022/10/23 08:56:36;;;;;;;5.13;4.20;;;33.50;81.80;;;;;;5010713;28;20116;-49
2022/10/23 08:59:18;;;;;;;4.40;4.00;;;33.60;82.90;;;;;;5011893;28;20046;-48
2022/10/23 09:01:59;;;;;;;5.20;4.20;;;33.40;83.80;;;;;;5010550;28;20041;-49
2022/10/23 09:04:25;;;;;;;5.15;4.65;;;33.20;82.90;;;;;;5016141;28;20132;-48
2022/10/23 09:07:35;;;;;;;5.20;4.32;;;32.20;84.40;;;;;;5017921;28;20149;-48
2022/10/23 09:10:15;;;;;;;7.65;5.03;;;33.40;83.90;;;;;;5001774;28;20045;-49
2022/10/23 09:12:41;;;;;;;4.85;4.03;;;32.20;83.70;;;;;;4977714;28;20121;-48
2022/10/23 09:15:41;;;;;;;6.38;5.03;;;32.90;84.60;;;;;;5015956;28;20406;-48
2022/10/23 09:18:12;;;;;;;4.35;4.03;;;33.00;83.80;;;;;;5067542;28;20039;-49
2022/10/23 09:20:39;;;;;;;5.72;4.88;;;33.10;84.50;;;;;;5072785;28;20016;-49
2022/10/23 09:23:20;;;;;;;5.25;4.28;;;32.60;83.70;;;;;;5073048;28;20074;-49
2022/10/23 09:25:49;;;;;;;5.30;4.80;;;32.70;84.40;;;;;;5075542;28;20021;-48
2022/10/23 09:28:20;;;;;;;5.93;4.88;;;32.90;83.20;;;;;;5071832;28;20033;-50
2022/10/23 09:30:47;;;;;;;3.90;3.50;;;31.60;83.40;;;;;;5073442;28;20028;-49
2022/10/23 09:33:16;;;;;;;5.10;4.70;;;;;;;;;;5040628;28;20041;-49
2022/10/23 09:36:01;;;;;;;4.32;3.70;;;31.10;84.60;;;;;;5053061;28;20561;-49
2022/10/23 09:38:31;;;;;;;5.68;5.18;;;;;;;;;;5073117;28;20124;-48
2022/10/23 09:41:16;;;;;;;4.67;4.20;;;32.20;84.20;;;;;;5066849;28;20555;-48
2022/10/23 09:43:42;;;;;;;4.85;4.38;;;32.00;84.30;;;;;;5072147;28;20300;-52
2022/10/23 09:46:09;;;;;;;4.45;3.90;;;32.30;85.20;;;;;;5070598;28;20403;-49
2022/10/23 09:48:35;;;;;;;5.70;5.30;;;33.10;85.20;;;;;;5070860;28;20032;-50
2022/10/23 09:51:20;;;;;;;4.20;3.80;;;32.40;84.10;;;;;;5066318;28;20753;-49
2022/10/23 09:53:47;;;;;;;6.10;3.83;;;33.60;84.00;;;;;;5071448;28;20037;-49
2022/10/23 09:56:22;;;;;;;4.22;3.83;;;33.20;83.40;;;;;;5070848;28;20036;-51
2022/10/23 09:58:58;;;;;;;3.30;3.00;;;33.20;83.60;;;;;;5067815;28;20021;-50
2022/10/23 10:01:34;;;;;;;3.75;2.92;;;33.40;82.30;;;;;;5069755;28;20032;-50
2022/10/23 10:04:01;;;;;;;4.18;2.88;;;34.30;83.20;;;;;;5071860;28;20047;-50
2022/10/23 10:06:32;;;;;;;5.32;3.00;;;33.20;82.40;;;;;;5065097;28;20041;-49
2022/10/23 10:09:14;;;;;;;4.28;3.00;;;32.60;83.20;;;;;;5066995;28;20033;-50
2022/10/23 10:11:42;;;;;;;4.20;3.58;;;32.40;83.50;;;;;;5072931;28;20024;-51
2022/10/23 10:14:29;;;;;;;6.60;4.38;;;31.90;84.00;;;;;;5067062;28;20380;-51
2022/10/23 10:17:01;;;;;;;87.43;8.52;;;31.90;84.10;;;;;;5070828;28;20064;-49
2022/10/23 10:19:47;;;;;;;;;;;32.60;91.50;;;;;;5073275;28;20046;-51
2022/10/23 10:22:33;;;;;;;3.67;2.33;;;31.90;83.90;;;;;;5070950;28;20389;-50
2022/10/23 10:25:08;;;;;;;88.82;7.78;;;31.90;83.30;;;;;;5071352;28;20044;-50
2022/10/23 10:27:51;;;;;;;5.15;3.10;;;31.30;83.00;;;;;;5073564;28;20389;-51
2022/10/23 10:30:21;;;;;;;3.83;2.63;;;;;;;;;;5062105;28;20033;-50
2022/10/23 10:32:55;;;;;;;3.28;2.90;;;30.80;85.00;;;;;;5034910;28;20039;-49
2022/10/23 10:35:41;;;;;;;4.13;2.60;;;30.90;87.10;;;;;;5070401;28;20036;-49
2022/10/23 10:38:42;;;;;;;4.28;2.75;;;29.10;91.30;;;;;;5032460;28;20052;-51
2022/10/23 10:41:11;;;;;;;2.60;2.30;;;;;;;;;;5070630;28;20032;-49
2022/10/23 10:43:54;;;;;;;3.67;2.53;;;29.10;86.70;;;;;;5072002;28;20775;-49
2022/10/23 10:46:28;;;;;;;9.77;3.25;;;;;;;;;;5070032;28;20029;-50
2022/10/23 10:49:39;;;;;;;3.67;2.90;;;29.20;96.70;;;;;;5071848;28;20044;-50
2022/10/23 10:52:30;;;;;;;4.57;3.28;;;29.90;99.90;;;;;;4993295;28;20072;-51
2022/10/23 10:55:15;;;;;;;3.70;2.72;;;;;;;;;;4994164;28;20038;-51
2022/10/23 10:57:46;;;;;;;5.20;2.67;;;29.60;99.90;;;;;;4995672;28;20030;-49
2022/10/23 11:00:19;;;;;;;4.97;2.50;;;;;;;;;;4998991;28;20134;-49
2022/10/23 11:02:46;;;;;;;3.33;2.55;;;;;;;;;;4979068;28;20401;-50
2022/10/23 11:05:36;;;;;;;3.70;2.25;;;29.70;92.40;;;;;;4990704;28;20029;-48
2022/10/23 11:08:32;;;;;;;1.70;1.40;;;29.80;92.40;;;;;;4979736;28;20582;-50
2022/10/23 11:11:00;;;;;;;3.03;1.40;;;;;;;;;;4992324;28;20037;-52
2022/10/23 11:13:39;;;;;;;2.90;2.05;;;28.60;84.40;;;;;;4994375;28;20038;-49
2022/10/23 11:16:09;;;;;;;2.55;2.20;;;;;;;;;;4995140;28;20065;-47
2022/10/23 11:18:36;;;;;;;2.33;1.92;;;28.10;89.30;;;;;;4998236;28;20118;-49
2022/10/23 11:21:16;;;;;;;2.50;2.28;;;28.00;86.10;;;;;;4994691;28;20037;-51
2022/10/23 11:23:48;;;;;;;3.38;2.10;;;;;;;;;;4966676;28;20046;-49
2022/10/23 11:26:37;;;;;;;2.90;2.17;;;;;;;;;;4996662;28;20045;-49
2022/10/23 11:29:25;;;;;;;4.00;2.20;;;27.10;89.00;;;;;;5069213;28;20063;-48
2022/10/23 11:31:57;;;;;;;5.03;2.65;;;;;;;;;;5071883;28;20472;-49
2022/10/23 11:34:34;;;;;;;3.63;2.70;;;25.60;95.00;;;;;;5062951;28;20116;-49
2022/10/23 11:37:02;;;;;;;3.20;2.30;;;25.50;91.10;;;;;;5065308;28;20568;-50
2022/10/23 11:39:30;;;;;;;4.82;3.10;;;25.90;91.00;;;;;;5067644;28;20086;-49
2022/10/23 11:42:02;;;;;;;4.03;2.60;;;25.60;91.30;;;;;;5072224;28;20028;-48
2022/10/23 11:44:38;;;;;;;7.60;3.60;;;25.70;91.70;;;;;;5059468;28;20105;-49
2022/10/23 11:47:24;;;;;;;4.07;2.70;;;26.00;91.80;;;;;;5061900;28;20447;-49
2022/10/23 11:49:50;;;;;;;8.02;2.47;;;26.00;91.70;;;;;;5069772;28;20020;-49
2022/10/23 11:52:23;;;;;;;3.47;2.05;;;25.90;91.70;;;;;;5060896;28;20051;-49
2022/10/23 11:55:14;;;;;;;2.80;2.13;;;25.40;92.20;;;;;;5060256;28;20074;-52
2022/10/23 11:57:40;;;;;;;4.53;2.63;;;25.30;92.20;;;;;;5064793;28;20526;-46
2022/10/23 12:00:22;;;;;;;4.15;2.35;;;25.30;92.30;;;;;;5018734;28;20032;-49
2022/10/23 12:02:54;;;;;;;3.05;2.33;;;25.30;92.50;;;;;;5008159;28;20041;-50
2022/10/23 12:05:36;;;;;;;3.85;2.80;;;25.60;92.80;;;;;;5066906;28;20128;-48
2022/10/23 12:08:04;;;;;;;3.55;2.50;;;25.70;92.70;;;;;;5066213;28;20040;-49
2022/10/23 12:10:42;;;;;;;4.32;2.28;;;26.30;92.40;;;;;;5072928;28;20021;-49
2022/10/23 12:13:47;;;;;;;2.70;2.10;;;;;;;;;;5066142;28;20028;-48
2022/10/23 12:16:13;;;;;;;7.40;1.90;;;26.80;99.90;;;;;;4971280;28;20519;-49
2022/10/23 12:18:49;;;;;;;3.38;2.13;;;26.90;91.90;;;;;;4954728;28;20035;-50
2022/10/23 12:21:26;;;;;;;3.38;2.30;;;26.60;91.90;;;;;;4967469;28;20121;-50
2022/10/23 12:24:16;;;;;;;3.70;2.40;;;26.80;92.00;;;;;;4952974;28;20062;-51
2022/10/23 12:26:45;;;;;;;3.15;2.20;;;;;;;;;;4969028;28;20064;-49
2022/10/23 12:29:19;;;;;;;5.00;2.28;;;;;;;;;;4968997;28;20089;-49
2022/10/23 12:31:50;;;;;;;5.03;2.30;;;;;;;;;;4971992;28;20038;-49
2022/10/23 12:34:25;;;;;;;3.25;1.98;;;;;;;;;;4970779;28;20047;-48
2022/10/23 12:37:21;;;;;;;3.25;2.15;;;27.50;93.60;;;;;;4966813;28;20035;-48
2022/10/23 12:39:53;;;;;;;3.38;2.05;;;27.40;91.50;;;;;;4975655;28;20035;-48
2022/10/23 12:42:24;;;;;;;4.88;2.67;;;27.20;91.30;;;;;;4969833;28;20035;-51
2022/10/23 12:45:13;;;;;;;3.33;2.38;;;26.90;97.30;;;;;;4964421;28;20039;-49
2022/10/23 12:47:39;;;;;;;3.97;2.30;;;27.20;98.20;;;;;;5029962;28;20036;-50
2022/10/23 12:50:16;;;;;;;2.95;2.03;;;;;;;;;;5075795;28;20020;-48
2022/10/23 12:52:50;;;;;;;3.97;2.33;;;;;;;;;;5018173;28;20043;-50
2022/10/23 12:55:16;;;;;;;3.97;2.90;;;;;;;;;;5064188;28;20480;-49
2022/10/23 12:57:43;;;;;;;4.70;3.03;;;;;;;;;;5028100;28;20472;-51
2022/10/23 13:00:10;;;;;;;3.15;2.40;;;;;;;;;;5069291;28;20103;-50
2022/10/23 13:02:36;;;;;;;5.60;2.55;;;;;;;;;;5074138;28;20025;-50
2022/10/23 13:05:05;;;;;;;3.85;2.53;;;;;;;;;;5074123;28;20028;-48
2022/10/23 13:07:36;;;;;;;4.10;2.63;;;;;;;;;;5071208;28;20349;-50
2022/10/23 13:10:02;;;;;;;;;;;;;;;;;;5038643;28;20043;-49
2022/10/23 13:12:33;;;;;;;5.68;2.97;;;;;;;;;;5067770;28;19905;-50
2022/10/23 13:15:02;;;;;;;3.22;2.42;;;;;;;;;;5050476;28;20039;-48
2022/10/23 13:17:36;;;;;;;4.13;2.80;;;;;;;;;;5072727;28;20068;-50
2022/10/23 13:20:28;;;;;;;7.07;2.67;;;;;;;;;;5072819;28;20039;-50